sensor_id;sensor_type;location;lat;lon;timestamp;P1;durP1;ratioP1;P2;durP2;ratioP2
13731;SDS011;6937;56.096;12.664;2023-01-04T14:44:01;15.10;;;4.18;;
13731;SDS011;6937;56.096;12.664;2023-01-04T14:46:32;15.90;;;4.85;;
13731;SDS011;6937;56.096;12.664;2023-01-04T14:48:58;11.27;;;3.80;;
13731;SDS011;6937;56.096;12.664;2023-01-04T14:51:30;18.13;;;4.35;;
13731;SDS011;6937;56.096;12.664;2023-01-04T14:53:57;16.35;;;3.75;;
13731;SDS011;6937;56.096;12.664;2023-01-04T14:56:22;15.70;;;4.20;;
13731;SDS011;6937;56.096;12.664;2023-01-04T14:58:47;13.60;;;3.97;;
13731;SDS011;6937;56.096;12.664;2023-01-04T15:01:13;14.88;;;4.43;;
13731;SDS011;6937;56.096;12.664;2023-01-04T15:03:38;16.27;;;4.35;;
13731;SDS011;6937;56.096;12.664;2023-01-04T15:06:04;12.70;;;3.83;;
13731;SDS011;6937;56.096;12.664;2023-01-04T15:08:30;15.55;;;4.25;;
13731;SDS011;6937;56.096;12.664;2023-01-04T15:10:57;14.23;;;4.00;;
13731;SDS011;6937;56.096;12.664;2023-01-04T15:13:23;13.82;;;4.65;;
13731;SDS011;6937;56.096;12.664;2023-01-04T15:15:48;15.93;;;4.13;;
13731;SDS011;6937;56.096;12.664;2023-01-04T15:18:15;14.25;;;4.22;;
13731;SDS011;6937;56.096;12.664;2023-01-04T15:20:41;12.40;;;3.80;;
13731;SDS011;6937;56.096;12.664;2023-01-04T15:23:06;18.35;;;4.90;;
13731;SDS011;6937;56.096;12.664;2023-01-04T15:25:32;12.07;;;4.18;;
13731;SDS011;6937;56.096;12.664;2023-01-04T15:27:58;14.45;;;4.18;;
13731;SDS011;6937;56.096;12.664;2023-01-04T15:30:23;17.15;;;4.05;;
13731;SDS011;6937;56.096;12.664;2023-01-04T15:32:49;15.73;;;4.63;;
13731;SDS011;6937;56.096;12.664;2023-01-04T15:35:14;14.98;;;4.57;;
13731;SDS011;6937;56.096;12.664;2023-01-04T15:37:44;16.10;;;4.95;;
13731;SDS011;6937;56.096;12.664;2023-01-04T15:40:14;16.85;;;4.63;;
13731;SDS011;6937;56.096;12.664;2023-01-04T15:42:42;17.02;;;4.90;;
13731;SDS011;6937;56.096;12.664;2023-01-04T15:45:23;14.88;;;4.70;;
13731;SDS011;6937;56.096;12.664;2023-01-04T15:48:10;13.15;;;4.57;;
13731;SDS011;6937;56.096;12.664;2023-01-04T15:50:37;15.27;;;4.75;;
13731;SDS011;6937;56.096;12.664;2023-01-04T15:53:04;14.50;;;4.43;;
13731;SDS011;6937;56.096;12.664;2023-01-04T15:55:31;10.50;;;3.42;;
13731;SDS011;6937;56.096;12.664;2023-01-04T15:57:58;12.30;;;3.60;;
13731;SDS011;6937;56.096;12.664;2023-01-04T16:00:23;13.20;;;3.38;;
13731;SDS011;6937;56.096;12.664;2023-01-04T16:02:49;10.38;;;3.17;;
13731;SDS011;6937;56.096;12.664;2023-01-04T16:05:14;9.30;;;3.25;;
13731;SDS011;6937;56.096;12.664;2023-01-04T16:07:41;7.68;;;2.05;;
13731;SDS011;6937;56.096;12.664;2023-01-04T16:10:07;4.80;;;1.70;;
13731;SDS011;6937;56.096;12.664;2023-01-04T16:12:33;4.93;;;1.58;;
13731;SDS011;6937;56.096;12.664;2023-01-04T16:15:19;3.92;;;1.42;;
13731;SDS011;6937;56.096;12.664;2023-01-04T16:17:45;5.90;;;1.67;;
13731;SDS011;6937;56.096;12.664;2023-01-04T16:20:12;6.10;;;2.17;;
13731;SDS011;6937;56.096;12.664;2023-01-04T16:22:38;5.85;;;1.80;;
13731;SDS011;6937;56.096;12.664;2023-01-04T16:25:04;6.10;;;2.00;;
13731;SDS011;6937;56.096;12.664;2023-01-04T16:27:31;5.97;;;2.00;;
13731;SDS011;6937;56.096;12.664;2023-01-04T16:29:58;7.45;;;2.67;;
13731;SDS011;6937;56.096;12.664;2023-01-04T16:32:23;5.85;;;2.22;;
13731;SDS011;6937;56.096;12.664;2023-01-04T16:34:49;6.88;;;2.60;;
13731;SDS011;6937;56.096;12.664;2023-01-04T16:37:15;6.60;;;2.70;;
13731;SDS011;6937;56.096;12.664;2023-01-04T16:39:40;7.85;;;2.95;;
13731;SDS011;6937;56.096;12.664;2023-01-04T16:42:06;8.50;;;3.03;;
13731;SDS011;6937;56.096;12.664;2023-01-04T16:44:31;12.23;;;3.33;;
13731;SDS011;6937;56.096;12.664;2023-01-04T16:46:56;9.70;;;3.55;;
13731;SDS011;6937;56.096;12.664;2023-01-04T16:49:22;13.35;;;4.07;;
13731;SDS011;6937;56.096;12.664;2023-01-04T16:51:47;11.68;;;3.80;;
13731;SDS011;6937;56.096;12.664;2023-01-04T16:54:13;15.68;;;4.07;;
13731;SDS011;6937;56.096;12.664;2023-01-04T16:56:41;11.25;;;4.05;;
13731;SDS011;6937;56.096;12.664;2023-01-04T16:59:08;12.95;;;4.18;;
13731;SDS011;6937;56.096;12.664;2023-01-04T17:01:36;8.52;;;3.10;;
13731;SDS011;6937;56.096;12.664;2023-01-04T17:04:03;13.23;;;3.25;;
13731;SDS011;6937;56.096;12.664;2023-01-04T17:06:35;13.35;;;3.30;;
13731;SDS011;6937;56.096;12.664;2023-01-04T17:09:02;11.35;;;3.20;;
13731;SDS011;6937;56.096;12.664;2023-01-04T17:11:29;11.95;;;3.47;;
13731;SDS011;6937;56.096;12.664;2023-01-04T17:13:56;12.77;;;3.67;;
13731;SDS011;6937;56.096;12.664;2023-01-04T17:16:22;17.30;;;3.88;;
13731;SDS011;6937;56.096;12.664;2023-01-04T17:18:48;14.00;;;3.45;;
13731;SDS011;6937;56.096;12.664;2023-01-04T17:21:16;11.63;;;3.47;;
13731;SDS011;6937;56.096;12.664;2023-01-04T17:23:44;15.55;;;3.63;;
13731;SDS011;6937;56.096;12.664;2023-01-04T17:26:12;15.45;;;3.58;;
13731;SDS011;6937;56.096;12.664;2023-01-04T17:28:40;16.55;;;4.28;;
13731;SDS011;6937;56.096;12.664;2023-01-04T17:31:07;20.13;;;4.35;;
13731;SDS011;6937;56.096;12.664;2023-01-04T17:33:37;13.00;;;3.53;;
13731;SDS011;6937;56.096;12.664;2023-01-04T17:36:06;18.92;;;4.70;;
13731;SDS011;6937;56.096;12.664;2023-01-04T17:38:34;16.25;;;3.33;;
13731;SDS011;6937;56.096;12.664;2023-01-04T17:43:33;15.68;;;4.15;;
13731;SDS011;6937;56.096;12.664;2023-01-04T17:46:00;18.52;;;4.28;;
13731;SDS011;6937;56.096;12.664;2023-01-04T17:48:26;15.63;;;3.78;;
13731;SDS011;6937;56.096;12.664;2023-01-04T17:50:52;16.90;;;4.20;;
13731;SDS011;6937;56.096;12.664;2023-01-04T17:53:17;18.23;;;4.15;;
13731;SDS011;6937;56.096;12.664;2023-01-04T17:55:42;18.27;;;3.65;;
13731;SDS011;6937;56.096;12.664;2023-01-04T17:58:07;20.05;;;4.60;;
13731;SDS011;6937;56.096;12.664;2023-01-04T18:00:33;21.58;;;5.28;;
13731;SDS011;6937;56.096;12.664;2023-01-04T18:02:58;17.13;;;4.53;;
13731;SDS011;6937;56.096;12.664;2023-01-04T18:05:24;26.55;;;5.65;;
13731;SDS011;6937;56.096;12.664;2023-01-04T18:07:49;17.38;;;4.78;;
13731;SDS011;6937;56.096;12.664;2023-01-04T18:10:14;19.75;;;5.05;;
13731;SDS011;6937;56.096;12.664;2023-01-04T18:12:40;18.05;;;4.13;;
13731;SDS011;6937;56.096;12.664;2023-01-04T18:15:05;17.08;;;4.45;;
13731;SDS011;6937;56.096;12.664;2023-01-04T18:17:31;16.17;;;3.72;;
13731;SDS011;6937;56.096;12.664;2023-01-04T18:19:56;17.25;;;4.15;;
13731;SDS011;6937;56.096;12.664;2023-01-04T18:22:22;16.90;;;4.25;;
13731;SDS011;6937;56.096;12.664;2023-01-04T18:24:48;16.10;;;3.58;;
13731;SDS011;6937;56.096;12.664;2023-01-04T18:27:13;15.45;;;4.07;;
13731;SDS011;6937;56.096;12.664;2023-01-04T18:29:39;17.73;;;3.97;;
13731;SDS011;6937;56.096;12.664;2023-01-04T18:32:04;14.52;;;3.40;;
13731;SDS011;6937;56.096;12.664;2023-01-04T18:34:29;11.32;;;4.15;;
13731;SDS011;6937;56.096;12.664;2023-01-04T18:36:55;13.85;;;2.80;;
13731;SDS011;6937;56.096;12.664;2023-01-04T18:39:21;11.35;;;3.08;;
13731;SDS011;6937;56.096;12.664;2023-01-04T18:41:46;17.10;;;3.90;;
13731;SDS011;6937;56.096;12.664;2023-01-04T18:44:12;17.13;;;4.28;;
13731;SDS011;6937;56.096;12.664;2023-01-04T18:46:39;15.68;;;4.07;;
13731;SDS011;6937;56.096;12.664;2023-01-04T18:49:05;15.80;;;3.80;;
13731;SDS011;6937;56.096;12.664;2023-01-04T18:51:31;14.85;;;4.20;;
13731;SDS011;6937;56.096;12.664;2023-01-04T18:53:56;23.25;;;5.15;;
13731;SDS011;6937;56.096;12.664;2023-01-04T18:56:22;20.77;;;4.65;;
13731;SDS011;6937;56.096;12.664;2023-01-04T18:58:47;22.83;;;4.80;;
13731;SDS011;6937;56.096;12.664;2023-01-04T19:01:15;26.83;;;6.22;;
13731;SDS011;6937;56.096;12.664;2023-01-04T19:03:42;22.63;;;5.30;;
13731;SDS011;6937;56.096;12.664;2023-01-04T19:06:11;22.38;;;4.97;;
13731;SDS011;6937;56.096;12.664;2023-01-04T19:08:39;25.67;;;5.10;;
13731;SDS011;6937;56.096;12.664;2023-01-04T19:11:04;25.90;;;5.95;;
13731;SDS011;6937;56.096;12.664;2023-01-04T19:13:30;23.50;;;5.10;;
13731;SDS011;6937;56.096;12.664;2023-01-04T19:15:56;22.30;;;5.57;;
13731;SDS011;6937;56.096;12.664;2023-01-04T19:18:25;26.55;;;6.03;;
13731;SDS011;6937;56.096;12.664;2023-01-04T19:20:51;28.20;;;5.95;;
13731;SDS011;6937;56.096;12.664;2023-01-04T19:23:17;31.35;;;6.28;;
13731;SDS011;6937;56.096;12.664;2023-01-04T19:25:43;28.35;;;5.20;;
13731;SDS011;6937;56.096;12.664;2023-01-04T19:28:09;24.27;;;6.05;;
13731;SDS011;6937;56.096;12.664;2023-01-04T19:30:36;28.55;;;6.05;;
13731;SDS011;6937;56.096;12.664;2023-01-04T19:33:05;27.80;;;6.22;;
13731;SDS011;6937;56.096;12.664;2023-01-04T19:35:31;26.40;;;5.82;;
13731;SDS011;6937;56.096;12.664;2023-01-04T19:37:57;27.95;;;6.18;;
13731;SDS011;6937;56.096;12.664;2023-01-04T19:40:22;24.48;;;5.35;;
13731;SDS011;6937;56.096;12.664;2023-01-04T19:42:48;21.92;;;5.13;;
13731;SDS011;6937;56.096;12.664;2023-01-04T19:45:13;19.10;;;5.05;;
13731;SDS011;6937;56.096;12.664;2023-01-04T19:47:39;25.33;;;5.22;;
13731;SDS011;6937;56.096;12.664;2023-01-04T19:50:04;21.30;;;5.35;;
13731;SDS011;6937;56.096;12.664;2023-01-04T19:52:32;26.15;;;5.90;;
13731;SDS011;6937;56.096;12.664;2023-01-04T19:54:59;25.73;;;5.40;;
13731;SDS011;6937;56.096;12.664;2023-01-04T19:57:25;19.95;;;4.63;;
13731;SDS011;6937;56.096;12.664;2023-01-04T19:59:51;19.98;;;5.32;;
13731;SDS011;6937;56.096;12.664;2023-01-04T20:02:16;19.27;;;4.75;;
13731;SDS011;6937;56.096;12.664;2023-01-04T20:04:43;18.23;;;4.80;;
13731;SDS011;6937;56.096;12.664;2023-01-04T20:07:08;22.95;;;4.90;;
13731;SDS011;6937;56.096;12.664;2023-01-04T20:09:34;19.70;;;4.18;;
13731;SDS011;6937;56.096;12.664;2023-01-04T20:11:59;18.02;;;4.05;;
13731;SDS011;6937;56.096;12.664;2023-01-04T20:14:25;19.27;;;4.53;;
13731;SDS011;6937;56.096;12.664;2023-01-04T20:16:51;16.33;;;3.13;;
13731;SDS011;6937;56.096;12.664;2023-01-04T20:19:17;19.27;;;4.80;;
13731;SDS011;6937;56.096;12.664;2023-01-04T20:21:43;17.10;;;4.63;;
13731;SDS011;6937;56.096;12.664;2023-01-04T20:24:08;17.92;;;4.20;;
13731;SDS011;6937;56.096;12.664;2023-01-04T20:26:34;23.33;;;4.57;;
13731;SDS011;6937;56.096;12.664;2023-01-04T20:29:00;23.77;;;5.07;;
13731;SDS011;6937;56.096;12.664;2023-01-04T20:31:28;20.05;;;5.25;;
13731;SDS011;6937;56.096;12.664;2023-01-04T20:33:54;17.42;;;4.28;;
13731;SDS011;6937;56.096;12.664;2023-01-04T20:36:20;17.70;;;5.25;;
13731;SDS011;6937;56.096;12.664;2023-01-04T20:38:47;20.48;;;4.20;;
13731;SDS011;6937;56.096;12.664;2023-01-04T20:41:20;20.10;;;4.13;;
13731;SDS011;6937;56.096;12.664;2023-01-04T20:43:46;20.42;;;4.53;;
13731;SDS011;6937;56.096;12.664;2023-01-04T20:46:15;17.35;;;3.97;;
13731;SDS011;6937;56.096;12.664;2023-01-04T20:48:42;22.08;;;4.80;;
13731;SDS011;6937;56.096;12.664;2023-01-04T20:51:12;19.08;;;4.18;;
13731;SDS011;6937;56.096;12.664;2023-01-04T20:53:39;25.63;;;5.72;;
13731;SDS011;6937;56.096;12.664;2023-01-04T20:56:05;22.08;;;4.70;;
13731;SDS011;6937;56.096;12.664;2023-01-04T20:58:32;25.00;;;4.65;;
13731;SDS011;6937;56.096;12.664;2023-01-04T21:01:00;20.92;;;5.22;;
13731;SDS011;6937;56.096;12.664;2023-01-04T21:03:26;21.75;;;5.13;;
13731;SDS011;6937;56.096;12.664;2023-01-04T21:05:52;19.88;;;4.60;;
13731;SDS011;6937;56.096;12.664;2023-01-04T21:08:17;18.98;;;4.07;;
13731;SDS011;6937;56.096;12.664;2023-01-04T21:10:42;21.58;;;4.30;;
13731;SDS011;6937;56.096;12.664;2023-01-04T21:13:09;17.75;;;3.88;;
13731;SDS011;6937;56.096;12.664;2023-01-04T21:15:35;16.85;;;4.25;;
13731;SDS011;6937;56.096;12.664;2023-01-04T21:18:02;14.85;;;3.05;;
13731;SDS011;6937;56.096;12.664;2023-01-04T21:20:28;15.65;;;3.53;;
13731;SDS011;6937;56.096;12.664;2023-01-04T21:22:54;20.58;;;4.28;;
13731;SDS011;6937;56.096;12.664;2023-01-04T21:25:19;14.35;;;3.60;;
13731;SDS011;6937;56.096;12.664;2023-01-04T21:27:45;20.73;;;4.38;;
13731;SDS011;6937;56.096;12.664;2023-01-04T21:30:10;16.95;;;3.95;;
13731;SDS011;6937;56.096;12.664;2023-01-04T21:32:36;14.25;;;3.38;;
13731;SDS011;6937;56.096;12.664;2023-01-04T21:35:01;16.40;;;3.67;;
13731;SDS011;6937;56.096;12.664;2023-01-04T21:37:27;17.48;;;3.85;;
13731;SDS011;6937;56.096;12.664;2023-01-04T21:39:53;15.82;;;3.40;;
13731;SDS011;6937;56.096;12.664;2023-01-04T21:42:18;13.40;;;3.13;;
13731;SDS011;6937;56.096;12.664;2023-01-04T21:44:44;13.88;;;2.67;;
13731;SDS011;6937;56.096;12.664;2023-01-04T21:47:09;14.23;;;2.95;;
13731;SDS011;6937;56.096;12.664;2023-01-04T21:49:35;12.18;;;3.08;;
13731;SDS011;6937;56.096;12.664;2023-01-04T21:52:00;13.60;;;2.95;;
13731;SDS011;6937;56.096;12.664;2023-01-04T21:54:25;11.50;;;3.28;;
13731;SDS011;6937;56.096;12.664;2023-01-04T21:56:51;15.55;;;3.72;;
13731;SDS011;6937;56.096;12.664;2023-01-04T21:59:16;13.48;;;3.20;;
13731;SDS011;6937;56.096;12.664;2023-01-04T22:01:41;13.07;;;3.55;;
13731;SDS011;6937;56.096;12.664;2023-01-04T22:04:07;14.30;;;3.13;;
13731;SDS011;6937;56.096;12.664;2023-01-04T22:06:32;13.43;;;3.22;;
13731;SDS011;6937;56.096;12.664;2023-01-04T22:09:01;11.88;;;3.13;;
13731;SDS011;6937;56.096;12.664;2023-01-04T22:11:27;16.40;;;3.22;;
13731;SDS011;6937;56.096;12.664;2023-01-04T22:13:53;9.65;;;2.60;;
13731;SDS011;6937;56.096;12.664;2023-01-04T22:16:20;12.48;;;2.90;;
13731;SDS011;6937;56.096;12.664;2023-01-04T22:18:46;12.00;;;2.70;;
13731;SDS011;6937;56.096;12.664;2023-01-04T22:21:13;12.75;;;2.60;;
13731;SDS011;6937;56.096;12.664;2023-01-04T22:23:40;14.57;;;3.15;;
13731;SDS011;6937;56.096;12.664;2023-01-04T22:26:06;11.63;;;2.90;;
13731;SDS011;6937;56.096;12.664;2023-01-04T22:28:31;9.82;;;2.60;;
13731;SDS011;6937;56.096;12.664;2023-01-04T22:30:57;11.05;;;2.83;;
13731;SDS011;6937;56.096;12.664;2023-01-04T22:33:27;12.48;;;2.60;;
13731;SDS011;6937;56.096;12.664;2023-01-04T22:35:52;10.55;;;2.60;;
13731;SDS011;6937;56.096;12.664;2023-01-04T22:38:18;9.73;;;2.10;;
13731;SDS011;6937;56.096;12.664;2023-01-04T22:40:43;7.80;;;2.10;;
13731;SDS011;6937;56.096;12.664;2023-01-04T22:43:08;9.40;;;2.70;;
13731;SDS011;6937;56.096;12.664;2023-01-04T22:45:34;9.15;;;2.00;;
13731;SDS011;6937;56.096;12.664;2023-01-04T22:47:59;9.18;;;2.60;;
13731;SDS011;6937;56.096;12.664;2023-01-04T22:50:25;9.68;;;2.10;;
13731;SDS011;6937;56.096;12.664;2023-01-04T22:52:51;7.65;;;2.20;;
13731;SDS011;6937;56.096;12.664;2023-01-04T22:55:17;10.90;;;2.67;;
13731;SDS011;6937;56.096;12.664;2023-01-04T22:57:43;7.50;;;2.10;;
13731;SDS011;6937;56.096;12.664;2023-01-04T23:00:09;11.38;;;2.33;;
13731;SDS011;6937;56.096;12.664;2023-01-04T23:02:35;10.15;;;2.55;;
13731;SDS011;6937;56.096;12.664;2023-01-04T23:05:00;9.98;;;2.50;;
13731;SDS011;6937;56.096;12.664;2023-01-04T23:07:26;10.45;;;2.53;;
13731;SDS011;6937;56.096;12.664;2023-01-04T23:09:51;8.90;;;2.53;;
13731;SDS011;6937;56.096;12.664;2023-01-04T23:12:16;11.63;;;2.88;;
13731;SDS011;6937;56.096;12.664;2023-01-04T23:14:42;12.43;;;2.90;;
13731;SDS011;6937;56.096;12.664;2023-01-04T23:17:07;14.93;;;2.78;;
13731;SDS011;6937;56.096;12.664;2023-01-04T23:19:33;9.50;;;2.65;;
13731;SDS011;6937;56.096;12.664;2023-01-04T23:21:58;8.43;;;2.30;;
13731;SDS011;6937;56.096;12.664;2023-01-04T23:24:24;7.22;;;2.38;;
13731;SDS011;6937;56.096;12.664;2023-01-04T23:26:50;9.98;;;2.58;;
13731;SDS011;6937;56.096;12.664;2023-01-04T23:29:15;11.68;;;2.38;;
13731;SDS011;6937;56.096;12.664;2023-01-04T23:31:40;10.57;;;2.53;;
13731;SDS011;6937;56.096;12.664;2023-01-04T23:34:06;9.07;;;2.58;;
13731;SDS011;6937;56.096;12.664;2023-01-04T23:36:33;9.43;;;2.60;;
13731;SDS011;6937;56.096;12.664;2023-01-04T23:39:01;10.55;;;2.42;;
13731;SDS011;6937;56.096;12.664;2023-01-04T23:41:29;12.02;;;2.75;;
13731;SDS011;6937;56.096;12.664;2023-01-04T23:44:11;11.35;;;2.83;;
13731;SDS011;6937;56.096;12.664;2023-01-04T23:46:54;10.23;;;2.55;;
13731;SDS011;6937;56.096;12.664;2023-01-04T23:49:22;9.63;;;2.60;;
13731;SDS011;6937;56.096;12.664;2023-01-04T23:51:48;11.35;;;2.67;;
13731;SDS011;6937;56.096;12.664;2023-01-04T23:54:13;11.93;;;2.30;;
13731;SDS011;6937;56.096;12.664;2023-01-04T23:56:39;10.93;;;3.05;;
13731;SDS011;6937;56.096;12.664;2023-01-04T23:59:05;10.20;;;2.10;;
